Time;durP1;ratioP1;P1;durP2;ratioP2;P2;SDS_P1;SDS_P2;PMS_P1;PMS_P2;Temp;Humidity;BMP_temperature;BMP_pressure;BME280_temperature;BME280_humidity;BME280_pressure;Samples;Min_cycle;Max_cycle;Signal;HPM_P1;HPM_P2
2022/07/01 00:01:24;;;;;;;1.85;1.23;;;;;;;;;;5024079;28;20105;-56
2022/07/01 00:07:33;;;;;;;2.90;0.75;;;;;;;;;;4965292;29;20099;-54
2022/07/01 00:10:17;;;;;;;0.88;0.50;;;;;;;;;;4966809;29;20050;-57
2022/07/01 00:15:54;;;;;;;1.02;0.60;;;;;;;;;;4962322;29;20040;-57
2022/07/01 00:21:28;;;;;;;1.60;0.50;;;;;;;;;;4909094;29;20146;-57
2022/07/01 00:24:18;;;;;;;1.42;0.60;;;;;;;;;;4908865;29;20089;-56
2022/07/01 00:26:59;;;;;;;0.80;0.40;;;;;;;;;;4946933;29;20028;-55
2022/07/01 00:32:53;;;;;;;1.13;0.60;;;;;;;;;;4928605;29;20039;-55
2022/07/01 00:38:59;;;;;;;0.47;0.25;;;;;;;;;;4912486;29;20037;-56
2022/07/01 00:41:53;;;;;;;;;;;;;;;;;;;;;
2022/07/01 00:44:51;;;;;;;2.75;0.57;;;;;;;;;;5008635;28;20102;-54
2022/07/01 00:47:31;;;;;;;1.15;0.60;;;;;;;;;;4992235;28;20033;-56
2022/07/01 00:53:21;;;;;;;1.60;0.55;;;;;;;;;;5036190;28;20068;-55
2022/07/01 00:56:09;;;;;;;4.72;0.63;;;;;;;;;;5070034;28;20041;-57
2022/07/01 00:58:52;;;;;;;0.70;0.30;;;;;;;;;;5053388;28;20110;-56
2022/07/01 01:01:48;;;;;;;0.50;0.20;;;;;;;;;;5069166;28;20040;-56
2022/07/01 01:08:00;;;;;;;;;;;;;;;;;;;;;
2022/07/01 01:10:59;;;;;;;;;;;;;;;;;;;;;
2022/07/01 01:16:54;;;;;;;1.20;0.52;;;;;;;;;;5067238;28;20672;-56
2022/07/01 01:19:58;;;;;;;5.03;0.35;;;;;;;;;;5069750;28;20121;-56
2022/07/01 01:22:37;;;;;;;0.95;0.40;;;;;;;;;;5070354;28;20036;-57
2022/07/01 01:31:18;;;;;;;1.40;0.60;;;;;;;;;;4983179;28;20046;-57
2022/07/01 01:34:16;;;;;;;0.80;0.40;;;;;;;;;;5008854;28;20122;-56
2022/07/01 01:37:09;;;;;;;0.88;0.38;;;;;;;;;;5035694;28;20037;-55
2022/07/01 01:39:54;;;;;;;1.08;0.38;;;;;;;;;;5060280;28;20037;-56
2022/07/01 01:46:04;;;;;;;1.33;0.50;;;;;;;;;;4982678;28;20600;-57
2022/07/01 01:51:36;;;;;;;1.55;0.65;;;;;;;;;;5059936;28;20111;-56
2022/07/01 01:54:15;;;;;;;;;;;;;;;;;;;;;
2022/07/01 01:56:42;;;;;;;1.88;0.40;;;;;;;;;;5049530;28;20068;-56
2022/07/01 01:59:29;;;;;;;2.63;0.60;;;;;;;;;;5048851;28;20109;-56
2022/07/01 02:05:00;;;;;;;2.15;0.98;;;;;;;;;;5049422;28;20048;-55
2022/07/01 02:10:51;;;;;;;1.00;0.57;;;;;;;;;;5048844;28;20041;-56
2022/07/01 02:13:46;;;;;;;;;;;;;;;;;;;;;
2022/07/01 02:16:28;;;;;;;1.58;0.75;;;;;;;;;;5046888;28;20076;-56
2022/07/01 02:19:00;;;;;;;3.10;1.15;;;;;;;;;;5048957;28;20056;-56
2022/07/01 02:24:39;;;;;;;1.65;1.05;;;;;;;;;;5041082;28;20029;-57
2022/07/01 02:30:36;;;;;;;1.45;0.40;;;;;;;;;;5014741;28;20053;-57
2022/07/01 02:33:28;;;;;;;1.40;0.65;;;;;;;;;;5021855;28;20033;-57
2022/07/01 02:39:20;;;;;;;0.80;0.40;;;;;;;;;;5048553;28;20041;-57
2022/07/01 02:42:34;;;;;;;1.23;0.45;;;;;;;;;;5031355;28;20048;-54
2022/07/01 02:45:14;;;;;;;1.25;0.75;;;;;;;;;;5030973;28;20060;-56
2022/07/01 02:54:16;;;;;;;1.42;0.85;;;;;;;;;;5048637;28;20132;-57
2022/07/01 02:57:07;;;;;;;2.35;1.17;;;;;;;;;;5048432;28;20057;-57
2022/07/01 02:59:43;;;;;;;2.22;0.98;;;;;;;;;;5048402;28;20060;-57
2022/07/01 03:02:32;;;;;;;;;;;;;;;;;;;;;
2022/07/01 03:05:30;;;;;;;3.78;1.92;;;;;;;;;;5048285;28;20420;-57
2022/07/01 03:08:05;;;;;;;2.30;1.25;;;;;;;;;;5032821;28;20057;-57
2022/07/01 03:10:50;;;;;;;4.40;1.17;;;;;;;;;;5048277;28;20038;-57
2022/07/01 03:13:41;;;;;;;2.00;1.38;;;;;;;;;;5031060;28;20029;-57
2022/07/01 03:16:15;;;;;;;2.53;1.45;;;;;;;;;;5047724;28;20108;-56
2022/07/01 03:19:05;;;;;;;3.17;1.40;;;;;;;;;;5048348;28;20415;-57
2022/07/01 03:24:49;;;;;;;3.05;1.45;;;;;;;;;;4986659;28;20413;-57
2022/07/01 03:27:48;;;;;;;;;;;;;;;;;;;;;
2022/07/01 03:30:49;;;;;;;2.05;1.17;;;;;;;;;;4977702;28;20094;-57
2022/07/01 03:36:32;;;;;;;2.40;1.38;;;;;;;;;;5008207;28;20046;-56
2022/07/01 03:39:38;;;;;;;2.40;1.20;;;;;;;;;;5036059;28;20025;-55
2022/07/01 03:42:44;;;;;;;1.45;0.80;;;;;;;;;;5033208;28;20056;-56
2022/07/01 03:45:44;;;;;;;2.15;1.00;;;;;;;;;;5032615;28;20036;-57
2022/07/01 03:51:22;;;;;;;2.05;0.80;;;;;;;;;;5020576;28;20128;-57
2022/07/01 03:57:06;;;;;;;1.65;0.93;;;;;;;;;;5034322;28;20146;-58
2022/07/01 03:59:46;;;;;;;1.77;0.93;;;;;;;;;;5034224;28;20057;-56
2022/07/01 04:02:23;;;;;;;2.05;0.95;;;;;;;;;;5018154;28;20033;-56
2022/07/01 04:05:15;;;;;;;1.70;0.88;;;;;;;;;;5015938;28;20037;-56
2022/07/01 04:11:17;;;;;;;2.30;1.05;;;;;;;;;;5037502;28;20043;-57
2022/07/01 04:14:31;;;;;;;2.22;1.10;;;;;;;;;;5039204;28;20033;-57
2022/07/01 04:17:16;;;;;;;1.38;0.82;;;;;;;;;;5037796;28;20022;-56
2022/07/01 04:23:50;;;;;;;1.20;0.70;;;;;;;;;;4956964;29;20067;-57
2022/07/01 04:26:26;;;;;;;1.63;0.77;;;;;;;;;;4937626;29;20036;-56
2022/07/01 04:29:10;;;;;;;2.85;0.85;;;;;;;;;;4937420;29;20491;-55
2022/07/01 04:31:45;;;;;;;1.45;0.70;;;;;;;;;;4938573;29;20056;-56
2022/07/01 04:34:37;;;;;;;1.25;0.60;;;;;;;;;;4938024;29;20043;-56
2022/07/01 04:40:27;;;;;;;1.20;0.70;;;;;;;;;;4934379;29;20039;-57
2022/07/01 04:52:00;;;;;;;1.58;0.60;;;;;;;;;;5031199;28;20057;-56
2022/07/01 04:55:00;;;;;;;1.45;0.77;;;;;;;;;;4995488;28;20030;-57
2022/07/01 04:57:33;;;;;;;1.55;0.43;;;;;;;;;;4957092;29;20035;-57
2022/07/01 05:03:18;;;;;;;2.10;0.95;;;;;;;;;;4995777;28;20081;-56
2022/07/01 05:08:57;;;;;;;1.52;0.68;;;;;;;;;;4976024;28;20398;-55
2022/07/01 05:21:55;;;;;;;3.03;0.75;;;;;;;;;;4975910;28;20266;-57
2022/07/01 05:23:07;;;;;;;2.15;0.77;;;;;;;;;;4995677;28;20125;-57
2022/07/01 05:29:03;;;;;;;0.70;0.43;;;;;;;;;;5003135;28;20025;-57
2022/07/01 05:35:01;;;;;;;2.05;0.82;;;;;;;;;;5033952;28;20383;-56
2022/07/01 05:37:53;;;;;;;0.80;0.40;;;;;;;;;;5037680;28;20026;-57
2022/07/01 05:41:16;;;;;;;;;;;;;;;;;;;;;
2022/07/01 05:46:57;;;;;;;1.58;0.98;;;;;;;;;;5019605;28;20029;-56
2022/07/01 05:49:57;;;;;;;1.80;0.95;;;;;;;;;;5036309;28;20033;-57
2022/07/01 05:52:27;;;;;;;3.97;1.07;;;;;;;;;;5049191;28;20067;-57
2022/07/01 06:04:11;;;;;;;1.98;1.27;;;;;;;;;;5044805;28;20068;-57
2022/07/01 06:10:19;;;;;;;3.13;1.80;;;;;;;;;;5041998;28;20025;-56
2022/07/01 06:13:16;;;;;;;;;;;;;;;;;;;;;
2022/07/01 06:18:55;;;;;;;2.33;1.63;;;;;;;;;;5055039;28;20443;-57
2022/07/01 06:21:24;;;;;;;4.05;1.85;;;;;;;;;;5055845;28;20033;-55
2022/07/01 06:24:04;;;;;;;2.60;1.73;;;;;;;;;;5053773;28;20531;-55
2022/07/01 06:26:50;;;;;;;;;;;;;;;;;;;;;
2022/07/01 06:29:22;;;;;;;2.38;1.75;;;;;;;;;;5054929;28;20573;-55
2022/07/01 06:34:43;;;;;;;2.85;1.60;;;;;;;;;;5023725;28;20108;-56
2022/07/01 06:37:35;;;;;;;3.83;2.20;;;;;;;;;;5055422;28;20025;-56
2022/07/01 06:40:37;;;;;;;2.17;1.58;;;;;;;;;;5055816;28;20029;-57
2022/07/01 06:46:18;;;;;;;4.07;1.73;;;;;;;;;;5041853;28;20057;-57
2022/07/01 06:49:15;;;;;;;3.55;2.15;;;;;;;;;;5053614;28;20453;-57
2022/07/01 06:52:02;;;;;;;2.90;1.40;;;;;;;;;;5049640;28;20045;-57
2022/07/01 06:54:46;;;;;;;2.65;1.77;;;;;;;;;;5052085;28;20483;-57
2022/07/01 06:57:27;;;;;;;2.05;1.13;;;;;;;;;;5055321;28;20336;-57
2022/07/01 07:00:19;;;;;;;1.75;1.23;;;;;;;;;;5054767;28;20024;-56
2022/07/01 07:02:54;;;;;;;4.07;1.42;;;;;;;;;;5046331;28;20040;-56
2022/07/01 07:08:28;;;;;;;2.10;1.55;;;;;;;;;;5023578;28;20032;-57
2022/07/01 07:14:15;;;;;;;1.90;1.05;;;;;;;;;;5054866;28;20047;-56
2022/07/01 07:20:12;;;;;;;;;;;;;;;;;;;;;
2022/07/01 07:23:10;;;;;;;;;;;;;;;;;;;;;
2022/07/01 07:26:10;;;;;;;2.30;1.25;;;;;;;;;;5052371;28;20486;-57
2022/07/01 07:28:49;;;;;;;3.08;1.00;;;;;;;;;;5053230;28;20131;-56
2022/07/01 07:34:39;;;;;;;3.03;1.45;;;;;;;;;;5054483;28;20252;-57
2022/07/01 07:37:14;;;;;;;4.55;1.15;;;;;;;;;;5055039;28;20021;-57
2022/07/01 07:40:06;;;;;;;1.70;0.82;;;;;;;;;;5053954;28;20395;-56
2022/07/01 07:42:51;;;;;;;1.30;0.80;;;;;;;;;;5017950;28;20107;-57
2022/07/01 07:45:53;;;;;;;1.58;0.88;;;;;;;;;;5035940;28;20482;-57
2022/07/01 07:48:50;;;;;;;;;;;;;;;;;;;;;
2022/07/01 07:51:52;;;;;;;1.80;0.90;;;;;;;;;;5053037;28;20044;-57
2022/07/01 07:54:51;;;;;;;1.90;1.00;;;;;;;;;;4972732;28;20063;-55
2022/07/01 08:00:41;;;;;;;2.85;0.82;;;;;;;;;;5005268;28;20037;-56
2022/07/01 08:03:37;;;;;;;2.13;0.90;;;;;;;;;;5053169;28;20021;-55
2022/07/01 08:09:06;;;;;;;1.63;0.90;;;;;;;;;;5054624;28;20052;-57
2022/07/01 08:18:05;;;;;;;1.63;0.90;;;;;;;;;;4967734;28;20134;-57
2022/07/01 08:20:56;;;;;;;;;;;;;;;;;;;;;
2022/07/01 08:23:50;;;;;;;2.03;1.02;;;;;;;;;;4967901;28;20041;-57
2022/07/01 08:26:22;;;;;;;;;;;;;;;;;;4968902;28;20078;-57
2022/07/01 08:28:58;;;;;;;1.52;0.82;;;;;;;;;;4973337;28;20419;-57
2022/07/01 08:32:04;;;;;;;1.83;0.90;;;;;;;;;;4993095;28;20045;-55
2022/07/01 08:34:42;;;;;;;1.55;0.80;;;;;;;;;;5050038;28;20386;-56
2022/07/01 08:37:18;;;;;;;2.05;1.17;;;;;;;;;;5054142;28;20367;-57
2022/07/01 08:40:11;;;;;;;2.78;1.30;;;;;;;;;;5052016;28;20546;-57
2022/07/01 08:43:05;;;;;;;1.83;0.75;;;;;;;;;;5053602;28;20033;-57
2022/07/01 08:45:46;;;;;;;5.65;1.30;;;;;;;;;;5052280;28;20063;-56
2022/07/01 08:48:21;;;;;;;;;;;;;;;;;;5053006;28;20487;-57
2022/07/01 08:51:03;;;;;;;1.83;0.98;;;;;;;;;;5054144;28;19917;-57
2022/07/01 08:59:35;;;;;;;2.33;1.05;;;;;;;;;;5056742;28;20037;-56
2022/07/01 09:02:14;;;;;;;2.63;1.20;;;;;;;;;;5030311;28;20045;-56
2022/07/01 09:04:50;;;;;;;1.40;0.80;;;;;;;;;;5057524;28;20025;-57
2022/07/01 09:07:19;;;;;;;2.15;0.98;;;;;;;;;;5057419;28;20344;-57
2022/07/01 09:10:17;;;;;;;3.95;1.40;;;;;;;;;;5039455;28;20447;-58
2022/07/01 09:13:18;;;;;;;3.47;1.73;;;;;;;;;;4940253;29;20450;-57
2022/07/01 09:19:16;;;;;;;2.33;1.48;;;;;;;;;;5054034;28;20033;-57
2022/07/01 09:22:00;;;;;;;2.92;1.05;;;;;;;;;;5056753;28;20032;-56
2022/07/01 09:25:15;;;;;;;2.35;1.05;;;;;;;;;;5049755;28;20025;-56
2022/07/01 09:28:08;;;;;;;1.80;0.90;;;;;;;;;;5013033;28;20025;-57
2022/07/01 09:30:51;;;;;;;2.45;1.33;;;;;;;;;;5023350;28;20486;-56
2022/07/01 09:33:21;;;;;;;2.17;1.00;;;;;;;;;;5038157;28;20080;-57
2022/07/01 09:36:21;;;;;;;1.60;0.90;;;;;;;;;;5037037;28;20482;-57
2022/07/01 09:38:59;;;;;;;2.03;1.25;;;;;;;;;;5056936;28;20370;-56
2022/07/01 09:42:22;;;;;;;1.17;0.68;;;;;;;;;;5040000;28;20439;-55
2022/07/01 09:45:07;;;;;;;2.83;1.17;;;;;;;;;;5038912;28;20453;-58
2022/07/01 09:51:19;;;;;;;2.72;1.35;;;;;;;;;;4955876;29;20044;-58
2022/07/01 09:53:55;;;;;;;2.22;1.17;;;;;;;;;;4924940;29;20095;-58
2022/07/01 09:56:25;;;;;;;1.60;0.93;;;;;;;;;;4955317;28;20094;-58
2022/07/01 09:59:30;;;;;;;2.47;1.27;;;;;;;;;;4959199;28;20031;-58
2022/07/01 10:02:11;;;;;;;2.75;1.40;;;;;;;;;;4954549;28;20046;-58
2022/07/01 10:04:46;;;;;;;1.92;1.05;;;;;;;;;;4975151;28;20429;-58
2022/07/01 10:07:59;;;;;;;;;;;;;;;;;;;;;
2022/07/01 10:10:46;;;;;;;2.20;1.20;;;;;;;;;;4975101;28;20389;-58
2022/07/01 10:13:32;;;;;;;2.13;1.27;;;;;;;;;;4959420;28;20038;-58
2022/07/01 10:16:12;;;;;;;2.20;1.20;;;;;;;;;;4975828;28;20123;-59
2022/07/01 10:21:53;;;;;;;2.08;1.30;;;;;;;;;;5059492;28;20032;-59
2022/07/01 10:24:28;;;;;;;1.65;1.08;;;;;;;;;;5034473;28;20026;-59
2022/07/01 10:28:06;;;;;;;;;;;;;;;;;;;;;
2022/07/01 10:33:33;;;;;;;3.97;1.60;;;;;;;;;;5024894;28;20026;-59
2022/07/01 10:39:31;;;;;;;2.92;1.50;;;;;;;;;;5031545;28;20064;-59
2022/07/01 10:42:12;;;;;;;;;;;;;;;;;;;;;
2022/07/01 10:45:02;;;;;;;2.85;1.40;;;;;;;;;;5033787;28;20033;-58
2022/07/01 10:47:34;;;;;;;2.75;1.27;;;;;;;;;;5033316;28;20029;-59
2022/07/01 10:53:43;;;;;;;3.75;1.63;;;;;;;;;;5033016;28;20037;-58
2022/07/01 10:56:47;;;;;;;3.80;1.20;;;;;;;;;;5032725;28;20041;-58
2022/07/01 10:59:45;;;;;;;2.45;1.40;;;;;;;;;;5016830;28;20120;-58
2022/07/01 11:02:39;;;;;;;2.60;1.50;;;;;;;;;;5060914;28;20107;-58
2022/07/01 11:05:14;;;;;;;3.05;1.13;;;;;;;;;;5074918;28;20370;-58
2022/07/01 11:07:57;;;;;;;3.33;1.63;;;;;;;;;;5056045;28;20040;-58
2022/07/01 11:10:54;;;;;;;2.65;1.20;;;;;;;;;;5075307;28;20044;-58
2022/07/01 11:13:42;;;;;;;2.88;1.65;;;;;;;;;;5057208;28;20347;-58
2022/07/01 11:19:23;;;;;;;1.67;0.90;;;;;;;;;;5027502;28;20025;-58
2022/07/01 11:21:55;;;;;;;2.53;1.25;;;;;;;;;;5057288;28;20489;-59
2022/07/01 11:24:42;;;;;;;1.95;0.90;;;;;;;;;;5075243;28;20490;-59
2022/07/01 11:27:24;;;;;;;2.47;1.30;;;;;;;;;;5074718;28;20054;-59
2022/07/01 11:30:03;;;;;;;3.45;1.60;;;;;;;;;;5056166;28;20478;-58
2022/07/01 11:32:44;;;;;;;2.10;0.98;;;;;;;;;;5056248;28;20036;-58
2022/07/01 11:41:48;;;;;;;1.88;1.25;;;;;;;;;;4964039;28;20070;-59
2022/07/01 11:45:01;;;;;;;;;;;;;;;;;;;;;
2022/07/01 11:47:54;;;;;;;3.10;2.13;;;;;;;;;;5071561;28;20025;-59
2022/07/01 11:50:25;;;;;;;2.17;1.30;;;;;;;;;;4991926;28;20069;-59
2022/07/01 11:53:26;;;;;;;3.20;1.50;;;;;;;;;;4993201;28;20049;-59
2022/07/01 11:56:04;;;;;;;2.17;1.48;;;;;;;;;;5068085;28;20040;-59
2022/07/01 11:59:06;;;;;;;8.40;2.03;;;;;;;;;;5058741;28;20039;-59
2022/07/01 12:01:41;;;;;;;2.72;1.38;;;;;;;;;;5039666;28;20036;-59
2022/07/01 12:04:18;;;;;;;2.97;1.92;;;;;;;;;;5055807;28;20041;-59
2022/07/01 12:07:00;;;;;;;2.30;1.50;;;;;;;;;;5056612;28;20486;-59
2022/07/01 12:12:43;;;;;;;2.58;1.58;;;;;;;;;;5074321;28;20044;-59
2022/07/01 12:15:35;;;;;;;2.70;1.52;;;;;;;;;;5040902;28;20111;-59
2022/07/01 12:21:24;;;;;;;;;;;;;;;;;;;;;
2022/07/01 12:24:12;;;;;;;2.28;1.20;;;;;;;;;;5073974;28;20127;-59
2022/07/01 12:30:24;;;;;;;2.40;1.20;;;;;;;;;;4996447;28;20036;-59
2022/07/01 12:33:19;;;;;;;2.63;1.80;;;;;;;;;;5056939;28;20026;-59
2022/07/01 12:35:58;;;;;;;3.10;1.80;;;;;;;;;;5049109;28;20456;-59
2022/07/01 12:38:29;;;;;;;3.80;2.10;;;;;;;;;;5059840;28;20068;-59
2022/07/01 12:47:49;;;;;;;2.92;1.60;;;;;;;;;;5082651;28;20032;-59
2022/07/01 12:50:51;;;;;;;4.32;1.60;;;;;;;;;;4960457;28;20546;-59
2022/07/01 12:53:26;;;;;;;2.42;1.25;;;;;;;;;;4976414;28;20034;-59
2022/07/01 12:59:15;;;;;;;;;;;;;;;;;;4900020;29;20036;-59
2022/07/01 13:02:29;;;;;;;;;;;;;;;;;;;;;
2022/07/01 13:05:44;;;;;;;1.52;0.93;;;;;;;;;;4948885;29;20382;-59
2022/07/01 13:11:32;;;;;;;2.97;1.27;;;;;;;;;;4956516;29;20078;-59
2022/07/01 13:13:59;;;;;;;3.47;1.63;;;;;;;;;;4956517;29;20031;-59
2022/07/01 13:16:42;;;;;;;2.03;0.90;;;;;;;;;;4956598;29;20470;-59
2022/07/01 13:22:15;;;;;;;2.38;1.20;;;;;;;;;;4956218;29;20202;-59
2022/07/01 13:24:48;;;;;;;2.10;0.85;;;;;;;;;;5027265;28;20025;-59
2022/07/01 13:27:25;;;;;;;;;;;;;;;;;;;;;
2022/07/01 13:30:00;;;;;;;2.67;1.45;;;;;;;;;;4988742;28;20037;-59
2022/07/01 13:32:35;;;;;;;2.53;1.27;;;;;;;;;;5056500;28;20036;-59
2022/07/01 13:35:27;;;;;;;2.30;1.30;;;;;;;;;;5056504;28;20059;-59
2022/07/01 13:41:15;;;;;;;5.30;1.30;;;;;;;;;;5056482;28;20501;-59
2022/07/01 13:44:04;;;;;;;1.80;1.15;;;;;;;;;;5055787;28;20079;-59
2022/07/01 13:46:42;;;;;;;2.55;1.17;;;;;;;;;;4995284;28;20030;-59
2022/07/01 13:49:46;;;;;;;1.77;1.10;;;;;;;;;;4993029;28;20495;-59
2022/07/01 13:58:29;;;;;;;3.50;1.20;;;;;;;;;;5001486;28;20053;-59
2022/07/01 14:01:16;;;;;;;1.70;0.90;;;;;;;;;;4997745;28;20038;-59
2022/07/01 14:04:04;;;;;;;2.17;0.73;;;;;;;;;;5004485;28;20084;-59
2022/07/01 14:06:31;;;;;;;1.80;1.00;;;;;;;;;;4997187;28;20468;-59
2022/07/01 14:09:09;;;;;;;1.40;0.70;;;;;;;;;;5014032;28;20030;-59
2022/07/01 14:11:45;;;;;;;2.25;1.08;;;;;;;;;;5014565;28;20534;-59
2022/07/01 14:17:13;;;;;;;4.88;1.17;;;;;;;;;;5024894;28;20036;-59
2022/07/01 14:19:59;;;;;;;1.95;1.05;;;;;;;;;;5056671;28;20558;-59
2022/07/01 14:22:54;;;;;;;;;;;;;;;;;;;;;
2022/07/01 14:25:54;;;;;;;2.50;1.20;;;;;;;;;;5056175;28;20096;-59
2022/07/01 14:31:34;;;;;;;3.55;1.40;;;;;;;;;;5055891;28;20345;-59
2022/07/01 14:34:28;;;;;;;1.40;0.80;;;;;;;;;;5055725;28;20021;-59
2022/07/01 14:37:24;;;;;;;1.55;0.60;;;;;;;;;;5014374;28;20072;-59
2022/07/01 14:43:18;;;;;;;1.75;0.73;;;;;;;;;;5013783;28;20050;-59
2022/07/01 14:45:58;;;;;;;2.33;0.82;;;;;;;;;;5014009;28;20026;-59
2022/07/01 14:48:53;;;;;;;1.50;0.52;;;;;;;;;;5038431;28;20037;-59
2022/07/01 14:51:31;;;;;;;1.80;0.93;;;;;;;;;;5049199;28;20429;-59
2022/07/01 14:57:21;;;;;;;1.95;0.88;;;;;;;;;;4954945;28;20095;-59
2022/07/01 15:03:41;;;;;;;1.88;0.85;;;;;;;;;;5056402;28;20074;-59
2022/07/01 15:06:38;;;;;;;1.80;0.88;;;;;;;;;;5059536;28;20033;-59
2022/07/01 15:09:32;;;;;;;;;;;;;;;;;;;;;
2022/07/01 15:12:01;;;;;;;2.67;0.82;;;;;;;;;;5073855;28;20385;-59
2022/07/01 15:14:39;;;;;;;2.20;0.82;;;;;;;;;;5075041;28;20024;-59
2022/07/01 15:17:18;;;;;;;1.42;0.60;;;;;;;;;;5074630;28;20017;-59
2022/07/01 15:20:07;;;;;;;1.05;0.52;;;;;;;;;;5074963;28;20029;-59
2022/07/01 15:23:08;;;;;;;1.83;0.98;;;;;;;;;;5059991;28;20374;-59
2022/07/01 15:26:09;;;;;;;3.10;0.60;;;;;;;;;;5056107;28;20478;-59
2022/07/01 15:28:35;;;;;;;;;;;;;;;;;;5074606;28;20031;-59
2022/07/01 15:31:29;;;;;;;1.48;0.60;;;;;;;;;;5056443;28;19916;-59
2022/07/01 15:34:18;;;;;;;1.08;0.47;;;;;;;;;;5075083;28;20451;-59
2022/07/01 15:40:14;;;;;;;0.85;0.43;;;;;;;;;;4992204;28;20035;-59
2022/07/01 15:43:15;;;;;;;1.30;0.50;;;;;;;;;;4993215;28;20034;-59
2022/07/01 15:49:08;;;;;;;1.00;0.50;;;;;;;;;;4965068;28;20086;-59
2022/07/01 15:52:01;;;;;;;6.43;0.75;;;;;;;;;;4976505;28;20030;-59
2022/07/01 15:54:45;;;;;;;0.80;0.45;;;;;;;;;;5029512;28;20029;-59
2022/07/01 15:57:43;;;;;;;;;;;;;;;;;;;;;
2022/07/01 16:00:24;;;;;;;1.83;0.65;;;;;;;;;;5073661;28;20031;-59
2022/07/01 16:03:11;;;;;;;1.73;0.47;;;;;;;;;;5074564;28;20359;-59
2022/07/01 16:06:20;;;;;;;1.27;0.50;;;;;;;;;;5040213;28;20509;-59
2022/07/01 16:08:59;;;;;;;1.10;0.50;;;;;;;;;;4973427;28;20035;-59
2022/07/01 16:11:55;;;;;;;1.85;1.08;;;;;;;;;;4951526;28;20557;-59
2022/07/01 16:14:43;;;;;;;0.98;0.40;;;;;;;;;;4973496;28;20019;-59
2022/07/01 16:17:15;;;;;;;1.95;0.68;;;;;;;;;;4971284;28;20540;-59
2022/07/01 16:20:26;;;;;;;;;;;;;;;;;;;;;
2022/07/01 16:23:09;;;;;;;1.48;0.70;;;;;;;;;;4947565;28;20134;-59
2022/07/01 16:26:03;;;;;;;1.90;0.88;;;;;;;;;;4953099;28;20487;-59
2022/07/01 16:28:35;;;;;;;7.47;0.65;;;;;;;;;;4934699;29;20072;-59
2022/07/01 16:31:17;;;;;;;1.30;0.60;;;;;;;;;;4973036;28;20136;-59
2022/07/01 16:36:59;;;;;;;1.67;0.65;;;;;;;;;;5010732;28;20021;-59
2022/07/01 16:39:36;;;;;;;1.15;0.60;;;;;;;;;;5028256;28;20483;-59
2022/07/01 16:45:26;;;;;;;1.67;0.57;;;;;;;;;;5019425;28;20038;-59
2022/07/01 16:51:20;;;;;;;0.85;0.47;;;;;;;;;;4979793;28;20070;-60
2022/07/01 16:54:12;;;;;;;1.10;0.50;;;;;;;;;;4999924;28;20367;-59
2022/07/01 17:00:19;;;;;;;1.13;0.50;;;;;;;;;;5049912;28;20025;-59
2022/07/01 17:02:56;;;;;;;1.98;0.50;;;;;;;;;;5055066;28;20374;-59
2022/07/01 17:05:34;;;;;;;0.88;0.38;;;;;;;;;;5073901;28;20104;-59
2022/07/01 17:08:07;;;;;;;1.17;0.55;;;;;;;;;;5074221;28;20446;-59
2022/07/01 17:10:39;;;;;;;1.20;0.63;;;;;;;;;;5074520;28;20124;-59
2022/07/01 17:16:48;;;;;;;1.40;0.60;;;;;;;;;;4919739;29;20028;-59
2022/07/01 17:23:00;;;;;;;1.63;0.50;;;;;;;;;;4917703;29;20111;-59
2022/07/01 17:26:05;;;;;;;1.05;0.50;;;;;;;;;;4957760;28;20492;-59
2022/07/01 17:32:10;;;;;;;0.88;0.50;;;;;;;;;;4962068;28;20049;-60
2022/07/01 17:35:14;;;;;;;1.17;0.68;;;;;;;;;;4976452;28;20035;-60
2022/07/01 17:37:58;;;;;;;1.63;0.70;;;;;;;;;;4975694;28;20038;-60
2022/07/01 17:40:36;;;;;;;1.85;0.55;;;;;;;;;;4976228;28;20043;-60
2022/07/01 17:43:32;;;;;;;1.10;0.38;;;;;;;;;;4959377;28;20045;-60
2022/07/01 17:49:35;;;;;;;0.77;0.40;;;;;;;;;;4948886;28;20117;-60
2022/07/01 17:52:23;;;;;;;1.30;0.80;;;;;;;;;;5016601;28;20033;-60
2022/07/01 17:55:16;;;;;;;2.75;0.73;;;;;;;;;;5034428;28;20029;-60
2022/07/01 17:57:57;;;;;;;3.50;0.98;;;;;;;;;;5010651;28;20092;-60
2022/07/01 18:00:46;;;;;;;1.15;0.40;;;;;;;;;;5017389;28;20033;-60
2022/07/01 18:03:47;;;;;;;1.25;0.65;;;;;;;;;;5034449;28;20042;-60
2022/07/01 18:06:19;;;;;;;2.08;0.60;;;;;;;;;;5033811;28;20159;-60
2022/07/01 18:09:07;;;;;;;1.80;0.63;;;;;;;;;;5034446;28;20033;-60
2022/07/01 18:14:46;;;;;;;1.15;0.70;;;;;;;;;;5025842;28;20022;-60
2022/07/01 18:17:51;;;;;;;1.08;0.60;;;;;;;;;;5017332;28;20036;-60
2022/07/01 18:20:46;;;;;;;1.42;0.88;;;;;;;;;;5033233;28;20099;-60
2022/07/01 18:23:37;;;;;;;1.30;0.68;;;;;;;;;;5012453;28;20084;-60
2022/07/01 18:26:18;;;;;;;;;;;;;;;;;;5034532;28;20502;-60
2022/07/01 18:28:53;;;;;;;6.20;0.95;;;;;;;;;;5034125;28;19912;-60
2022/07/01 18:31:30;;;;;;;1.02;0.57;;;;;;;;;;5033275;28;20053;-59
2022/07/01 18:34:38;;;;;;;;;;;;;;;;;;;;;
2022/07/01 18:37:26;;;;;;;;;;;;;;;;;;;;;
2022/07/01 18:40:13;;;;;;;;;;;;;;;;;;;;;
2022/07/01 18:42:56;;;;;;;1.05;0.70;;;;;;;;;;5032106;28;20033;-60
2022/07/01 18:45:32;;;;;;;1.75;0.63;;;;;;;;;;5013362;28;20511;-60
2022/07/01 18:48:34;;;;;;;2.40;1.00;;;;;;;;;;5033790;28;20451;-60
2022/07/01 18:51:12;;;;;;;1.25;0.65;;;;;;;;;;5033843;28;20041;-60
2022/07/01 18:54:02;;;;;;;3.40;0.93;;;;;;;;;;5033130;28;20034;-60
2022/07/01 18:57:01;;;;;;;1.17;0.73;;;;;;;;;;5039047;28;20041;-60
2022/07/01 18:59:50;;;;;;;3.20;1.25;;;;;;;;;;5027939;28;20510;-60
2022/07/01 19:02:28;;;;;;;2.50;1.10;;;;;;;;;;5056120;28;20117;-60
2022/07/01 19:04:59;;;;;;;1.83;0.80;;;;;;;;;;5055060;28;20036;-60
2022/07/01 19:10:15;;;;;;;2.47;0.95;;;;;;;;;;5035925;28;20309;-60
2022/07/01 19:16:41;;;;;;;3.38;1.17;;;;;;;;;;4974196;28;20022;-59
2022/07/01 19:22:13;;;;;;;1.88;0.88;;;;;;;;;;5050894;28;20025;-59
2022/07/01 19:25:06;;;;;;;1.13;0.60;;;;;;;;;;5028375;28;20032;-59
2022/07/01 19:27:41;;;;;;;1.45;0.85;;;;;;;;;;5038397;28;20502;-60
2022/07/01 19:33:40;;;;;;;1.90;1.00;;;;;;;;;;4972636;28;20038;-60
2022/07/01 19:36:32;;;;;;;1.25;0.60;;;;;;;;;;4956908;28;20050;-60
2022/07/01 19:39:17;;;;;;;4.68;1.10;;;;;;;;;;5023247;28;20387;-60
2022/07/01 19:42:14;;;;;;;;;;;;;;;;;;;;;
2022/07/01 19:44:45;;;;;;;1.90;0.77;;;;;;;;;;5054456;28;20366;-60
2022/07/01 19:47:23;;;;;;;4.15;1.40;;;;;;;;;;5053207;28;20450;-59
2022/07/01 19:49:59;;;;;;;1.77;1.00;;;;;;;;;;5053975;28;20467;-60
2022/07/01 19:52:37;;;;;;;2.47;1.50;;;;;;;;;;5052457;28;20033;-60
2022/07/01 19:55:24;;;;;;;2.45;1.20;;;;;;;;;;5036193;28;20116;-60
2022/07/01 19:58:39;;;;;;;;;;;;;;;;;;;;;
2022/07/01 20:01:28;;;;;;;2.00;1.30;;;;;;;;;;5074235;28;20423;-60
2022/07/01 20:04:03;;;;;;;2.88;1.50;;;;;;;;;;4956706;28;20039;-60
2022/07/01 20:06:50;;;;;;;2.50;1.65;;;;;;;;;;4973505;28;20031;-60
2022/07/01 20:12:50;;;;;;;;;;;;;;;;;;;;;
2022/07/01 20:15:22;;;;;;;2.13;1.38;;;;;;;;;;5029215;28;20440;-60
2022/07/01 20:18:13;;;;;;;2.22;1.17;;;;;;;;;;5056207;28;20040;-60
2022/07/01 20:21:21;;;;;;;;;;;;;;;;;;;;;
2022/07/01 20:24:29;;;;;;;2.53;1.02;;;;;;;;;;5075027;28;20028;-59
2022/07/01 20:27:13;;;;;;;2.65;0.85;;;;;;;;;;5025483;28;20028;-60
2022/07/01 20:30:30;;;;;;;1.65;0.90;;;;;;;;;;5073651;28;20021;-60
2022/07/01 20:33:20;;;;;;;1.75;0.98;;;;;;;;;;4972967;28;20054;-60
2022/07/01 20:36:06;;;;;;;2.50;1.30;;;;;;;;;;4951957;28;20077;-60
2022/07/01 20:38:55;;;;;;;2.72;1.20;;;;;;;;;;4966407;28;20047;-60
2022/07/01 20:41:50;;;;;;;1.88;1.05;;;;;;;;;;4984795;28;20073;-60
2022/07/01 20:44:19;;;;;;;2.58;1.35;;;;;;;;;;5074022;28;20418;-60
2022/07/01 20:50:26;;;;;;;2.70;1.13;;;;;;;;;;5052632;28;20060;-60
2022/07/01 20:52:58;;;;;;;2.38;1.50;;;;;;;;;;5078682;28;20075;-60
2022/07/01 20:58:46;;;;;;;1.90;1.02;;;;;;;;;;5021877;28;20382;-60
2022/07/01 21:08:02;;;;;;;2.72;1.70;;;;;;;;;;4988470;28;20037;-60
2022/07/01 21:10:40;;;;;;;3.92;2.30;;;;;;;;;;4972872;28;20037;-60
2022/07/01 21:13:27;;;;;;;3.33;2.63;;;;;;;;;;5026279;28;20042;-60
2022/07/01 21:16:17;;;;;;;6.47;2.45;;;;;;;;;;5011486;28;20030;-60
2022/07/01 21:19:10;;;;;;;2.20;1.45;;;;;;;;;;5027940;28;20090;-60
2022/07/01 21:21:52;;;;;;;;;;;;;;;;;;;;;
2022/07/01 21:24:43;;;;;;;3.42;2.20;;;;;;;;;;5027464;28;20046;-59
2022/07/01 21:27:26;;;;;;;6.45;3.30;;;;;;;;;;5011705;28;20105;-59
2022/07/01 21:33:32;;;;;;;14.23;10.60;;;;;;;;;;5024872;28;20471;-60
2022/07/01 21:36:10;;;;;;;18.80;15.40;;;;;;;;;;4997416;28;20061;-60
2022/07/01 21:44:54;;;;;;;25.15;17.25;;;;;;;;;;5037431;28;20028;-60
2022/07/01 21:47:44;;;;;;;9.88;7.50;;;;;;;;;;5069511;28;20051;-59
2022/07/01 21:50:34;;;;;;;3.30;2.23;;;;;;;;;;5069977;28;20472;-60
2022/07/01 21:53:35;;;;;;;2.28;1.55;;;;;;;;;;5070119;28;20702;-60
2022/07/01 21:56:08;;;;;;;3.05;2.08;;;;;;;;;;5052376;28;20039;-60
2022/07/01 21:59:15;;;;;;;13.43;10.75;;;;;;;;;;5080128;28;20048;-60
2022/07/01 22:02:05;;;;;;;7.65;6.68;;;;;;;;;;5026919;28;20044;-60
2022/07/01 22:04:41;;;;;;;;;;;;;;;;;;;;;
2022/07/01 22:07:10;;;;;;;5.43;3.00;;;;;;;;;;5025953;28;20479;-60
2022/07/01 22:10:17;;;;;;;3.00;2.33;;;;;;;;;;5011616;28;20026;-60
2022/07/01 22:13:17;;;;;;;3.80;2.10;;;;;;;;;;4988243;28;20419;-59
2022/07/01 22:16:02;;;;;;;3.65;1.85;;;;;;;;;;4950432;29;20028;-60
2022/07/01 22:19:06;;;;;;;3.20;2.58;;;;;;;;;;4971492;28;20128;-60
2022/07/01 22:21:40;;;;;;;3.67;2.20;;;;;;;;;;5070285;28;20170;-59
2022/07/01 22:24:36;;;;;;;6.30;3.55;;;;;;;;;;5054215;28;20098;-59
2022/07/01 22:27:16;;;;;;;5.05;3.78;;;;;;;;;;5060301;28;20064;-60
2022/07/01 22:29:51;;;;;;;6.03;2.55;;;;;;;;;;5089146;28;20055;-59
2022/07/01 22:32:45;;;;;;;3.28;2.60;;;;;;;;;;5088422;28;20047;-59